Time;durP1;ratioP1;P1;durP2;ratioP2;P2;SDS_P1;SDS_P2;PMS_P1;PMS_P2;Temp;Humidity;BMP_temperature;BMP_pressure;BME280_temperature;BME280_humidity;BME280_pressure;Samples;Min_cycle;Max_cycle;Signal;HPM_P1;HPM_P2
2021/08/28 00:01:27;;;;;;;8.15;7.30;;;19.00;81.60;;;;;;5069922;28;20175;-73
2021/08/28 00:03:52;;;;;;;7.10;6.45;;;18.90;81.70;;;;;;5067322;28;20203;-73
2021/08/28 00:06:18;;;;;;;10.77;5.97;;;18.90;82.10;;;;;;5066831;28;20187;-73
2021/08/28 00:08:44;;;;;;;7.97;6.28;;;18.80;81.80;;;;;;5062847;28;20187;-73
2021/08/28 00:11:10;;;;;;;7.97;6.28;;;18.80;82.40;;;;;;5067474;28;20187;-73
2021/08/28 00:13:35;;;;;;;6.43;5.90;;;18.70;82.40;;;;;;5065004;28;20676;-74
2021/08/28 00:16:01;;;;;;;8.80;6.53;;;18.60;82.70;;;;;;5061088;28;20206;-73
2021/08/28 00:18:27;;;;;;;6.72;6.05;;;18.60;82.90;;;;;;5064737;28;20628;-73
2021/08/28 00:20:53;;;;;;;9.35;6.45;;;18.50;82.70;;;;;;5074049;28;20183;-72
2021/08/28 00:23:19;;;;;;;8.25;6.55;;;18.50;82.90;;;;;;5076172;28;20218;-73
2021/08/28 00:25:44;;;;;;;10.23;7.28;;;18.40;83.30;;;;;;5071943;28;20229;-73
2021/08/28 00:28:11;;;;;;;7.15;6.45;;;18.40;83.40;;;;;;5073111;28;20610;-74
2021/08/28 00:30:37;;;;;;;10.30;6.78;;;18.40;83.10;;;;;;5073598;28;20184;-73
2021/08/28 00:33:14;;;;;;;6.35;5.75;;;18.40;83.30;;;;;;5069930;28;20185;-73
2021/08/28 00:35:40;;;;;;;7.68;6.70;;;18.30;82.70;;;;;;5071701;28;20174;-73
2021/08/28 00:38:07;;;;;;;7.63;6.85;;;18.30;83.50;;;;;;5067092;28;20186;-73
2021/08/28 00:40:34;;;;;;;6.45;5.63;;;18.20;83.20;;;;;;5082389;28;20171;-73
2021/08/28 00:43:00;;;;;;;7.35;6.65;;;18.20;83.60;;;;;;5070918;28;20228;-73
2021/08/28 00:45:31;;;;;;;8.70;6.20;;;18.10;83.50;;;;;;5069162;28;20724;-73
2021/08/28 00:48:07;;;;;;;6.18;5.63;;;18.10;83.40;;;;;;5067987;28;20199;-73
2021/08/28 00:50:36;;;;;;;6.85;6.18;;;18.00;83.90;;;;;;5071681;28;20194;-74
2021/08/28 00:53:03;;;;;;;6.47;5.90;;;17.90;84.30;;;;;;5068256;28;20178;-73
2021/08/28 00:55:30;;;;;;;6.78;5.78;;;17.90;83.50;;;;;;5073258;28;20650;-74
2021/08/28 00:57:57;;;;;;;6.97;6.18;;;17.80;84.60;;;;;;5069597;28;20608;-74
2021/08/28 01:00:23;;;;;;;6.95;5.88;;;17.80;84.00;;;;;;5076707;28;20186;-74
2021/08/28 01:02:51;;;;;;;6.97;5.65;;;17.70;84.60;;;;;;5063700;28;20192;-73
2021/08/28 01:05:28;;;;;;;8.40;5.78;;;17.70;84.50;;;;;;5068845;28;20194;-73
2021/08/28 01:08:17;;;;;;;6.63;6.03;;;17.60;84.10;;;;;;5069627;28;20183;-74
2021/08/28 01:10:50;;;;;;;6.03;5.43;;;17.60;84.90;;;;;;5072909;28;20202;-73
2021/08/28 01:13:17;;;;;;;8.25;6.38;;;17.60;84.50;;;;;;5073495;28;20202;-74
2021/08/28 01:15:45;;;;;;;6.88;6.28;;;17.60;84.90;;;;;;5070751;28;20183;-74
2021/08/28 01:18:14;;;;;;;6.85;6.15;;;17.50;85.00;;;;;;5075696;28;20234;-74
2021/08/28 01:20:55;;;;;;;8.18;5.78;;;17.50;85.20;;;;;;5075051;28;20688;-74
2021/08/28 01:23:21;;;;;;;7.13;6.43;;;17.50;85.40;;;;;;5067539;28;20696;-74
2021/08/28 01:25:49;;;;;;;6.95;5.72;;;17.40;85.50;;;;;;5064092;28;20186;-74
2021/08/28 01:28:16;;;;;;;5.88;5.38;;;17.40;85.50;;;;;;5063162;28;20237;-74
2021/08/28 01:30:43;;;;;;;7.45;6.35;;;17.40;84.90;;;;;;5075677;28;20171;-73
2021/08/28 01:33:10;;;;;;;7.50;6.60;;;17.40;85.30;;;;;;5067462;28;20209;-73
2021/08/28 01:35:37;;;;;;;7.68;6.88;;;17.40;85.30;;;;;;5073327;28;20619;-73
2021/08/28 01:38:04;;;;;;;6.68;6.13;;;17.40;85.30;;;;;;5073434;28;20207;-74
2021/08/28 01:40:31;;;;;;;7.40;5.68;;;17.40;85.10;;;;;;5067911;28;20249;-74
2021/08/28 01:42:57;;;;;;;6.60;5.95;;;17.50;85.00;;;;;;5062343;28;20226;-74
2021/08/28 01:45:26;;;;;;;9.57;5.78;;;17.50;85.50;;;;;;5063090;28;20193;-74
2021/08/28 01:47:53;;;;;;;6.55;5.95;;;17.50;84.80;;;;;;5067284;28;20267;-74
2021/08/28 01:50:22;;;;;;;7.57;6.45;;;17.40;85.10;;;;;;5073467;28;20194;-74
2021/08/28 01:52:49;;;;;;;6.90;5.38;;;17.40;84.80;;;;;;5070259;28;20178;-74
2021/08/28 01:55:16;;;;;;;7.45;6.43;;;17.40;84.90;;;;;;5070513;28;20182;-74
2021/08/28 01:57:42;;;;;;;5.90;5.22;;;17.40;85.20;;;;;;5061754;28;20176;-74
2021/08/28 02:00:08;;;;;;;6.18;5.68;;;17.30;85.20;;;;;;5077869;28;20563;-74
2021/08/28 02:02:34;;;;;;;7.10;6.45;;;17.30;85.00;;;;;;5067953;28;20179;-74
2021/08/28 02:05:01;;;;;;;7.68;6.10;;;17.40;84.70;;;;;;5066291;28;20769;-74
2021/08/28 02:07:51;;;;;;;9.30;6.35;;;17.30;85.40;;;;;;5061864;28;20201;-74
2021/08/28 02:10:20;;;;;;;6.25;5.70;;;17.30;85.00;;;;;;5065259;28;20185;-75
2021/08/28 02:12:53;;;;;;;5.72;5.22;;;17.40;84.70;;;;;;5028731;28;1161828;-75
2021/08/28 02:15:33;;;;;;;6.25;5.75;;;17.30;84.90;;;;;;5068578;28;20179;-73
2021/08/28 02:18:43;;;;;;;9.02;6.20;;;17.30;85.00;;;;;;5072911;28;20185;-74
2021/08/28 02:21:10;;;;;;;5.65;5.15;;;17.40;84.90;;;;;;5071414;28;20673;-74
2021/08/28 02:23:43;;;;;;;6.72;5.97;;;17.40;85.10;;;;;;5073245;28;20836;-73
2021/08/28 02:26:15;;;;;;;6.10;5.43;;;17.40;84.50;;;;;;5072291;28;20579;-74
2021/08/28 02:28:48;;;;;;;7.55;5.88;;;17.40;84.90;;;;;;5078521;28;20265;-73
2021/08/28 02:31:17;;;;;;;6.28;5.68;;;17.30;85.10;;;;;;5072731;28;20182;-73
2021/08/28 02:33:43;;;;;;;6.45;5.85;;;17.30;84.60;;;;;;5069951;28;20191;-73
2021/08/28 02:36:11;;;;;;;7.60;5.70;;;17.30;85.00;;;;;;5069797;28;20761;-73
2021/08/28 02:38:38;;;;;;;6.75;5.90;;;17.30;84.80;;;;;;5071570;28;20187;-73
2021/08/28 02:41:06;;;;;;;6.65;5.95;;;17.30;85.30;;;;;;5073878;28;20178;-74
2021/08/28 02:43:31;;;;;;;6.75;6.05;;;17.30;85.20;;;;;;5065092;28;20211;-74
2021/08/28 02:45:59;;;;;;;7.18;6.10;;;17.30;84.80;;;;;;5068929;28;20204;-74
2021/08/28 02:48:29;;;;;;;7.68;5.60;;;17.40;84.50;;;;;;5068030;28;20189;-74
2021/08/28 02:50:59;;;;;;;6.13;5.45;;;17.40;84.70;;;;;;5072114;28;20894;-74
2021/08/28 02:53:26;;;;;;;6.63;5.68;;;17.40;84.70;;;;;;5071979;28;20633;-74
2021/08/28 02:55:53;;;;;;;7.03;6.40;;;17.40;84.50;;;;;;5073152;28;20205;-74
2021/08/28 02:58:22;;;;;;;7.32;6.03;;;17.40;84.50;;;;;;5070219;28;20214;-74
2021/08/28 03:00:48;;;;;;;6.65;5.97;;;17.40;84.70;;;;;;5073224;28;20747;-74
2021/08/28 03:03:16;;;;;;;6.93;6.00;;;17.40;84.70;;;;;;5073756;28;20203;-74
2021/08/28 03:05:46;;;;;;;6.13;5.53;;;17.40;84.40;;;;;;5072912;28;20194;-74
2021/08/28 03:08:17;;;;;;;5.95;5.45;;;17.40;84.40;;;;;;5064828;28;20179;-74
2021/08/28 03:10:53;;;;;;;7.03;5.35;;;17.40;84.30;;;;;;5071344;28;20180;-74
2021/08/28 03:13:20;;;;;;;7.00;6.20;;;17.40;84.40;;;;;;5065742;28;20599;-74
2021/08/28 03:15:48;;;;;;;8.23;6.28;;;17.40;84.60;;;;;;5069050;28;20187;-74
2021/08/28 03:18:18;;;;;;;6.45;5.85;;;17.50;84.30;;;;;;5073090;28;20179;-73
2021/08/28 03:20:47;;;;;;;6.35;5.75;;;17.40;84.60;;;;;;5063540;28;20847;-74
2021/08/28 03:23:15;;;;;;;8.23;6.47;;;17.40;84.30;;;;;;5074364;28;20217;-73
2021/08/28 03:25:41;;;;;;;6.75;6.05;;;17.50;84.40;;;;;;5075954;28;20216;-74
2021/08/28 03:28:09;;;;;;;7.13;5.95;;;17.50;84.50;;;;;;5068552;28;20190;-73
2021/08/28 03:30:35;;;;;;;7.78;6.07;;;17.50;85.00;;;;;;5075201;28;20179;-73
2021/08/28 03:33:01;;;;;;;6.95;6.10;;;17.50;84.30;;;;;;5069278;28;20183;-74
2021/08/28 03:35:28;;;;;;;7.00;5.80;;;17.50;84.70;;;;;;5072856;28;20186;-74
2021/08/28 03:37:54;;;;;;;7.47;5.97;;;17.50;84.30;;;;;;5075708;28;20182;-74
2021/08/28 03:40:20;;;;;;;7.00;6.28;;;17.50;84.40;;;;;;5069501;28;20681;-74
2021/08/28 03:42:45;;;;;;;7.50;6.78;;;17.50;84.40;;;;;;5068659;28;20728;-74
2021/08/28 03:45:11;;;;;;;6.45;5.85;;;17.50;84.70;;;;;;5070014;28;20267;-74
2021/08/28 03:47:44;;;;;;;6.68;4.95;;;17.50;84.50;;;;;;5069455;28;20179;-73
2021/08/28 03:50:11;;;;;;;6.22;5.60;;;17.50;84.10;;;;;;5063765;28;20235;-73
2021/08/28 03:52:37;;;;;;;6.22;5.68;;;17.50;84.60;;;;;;5071860;28;20731;-74
2021/08/28 03:55:03;;;;;;;5.90;5.38;;;17.50;84.60;;;;;;5073471;28;20193;-74
2021/08/28 03:57:28;;;;;;;6.47;5.35;;;17.50;84.60;;;;;;5073000;28;20230;-74
2021/08/28 03:59:54;;;;;;;8.05;5.85;;;17.60;84.30;;;;;;5070326;28;20263;-74
2021/08/28 04:02:20;;;;;;;8.98;6.05;;;17.60;84.60;;;;;;5075723;28;20182;-75
2021/08/28 04:04:46;;;;;;;8.60;5.65;;;17.50;84.90;;;;;;5065997;28;20223;-75
2021/08/28 04:07:11;;;;;;;6.47;5.35;;;17.60;84.20;;;;;;5067154;28;20182;-74
2021/08/28 04:09:37;;;;;;;7.20;6.05;;;17.60;84.20;;;;;;5065772;28;20193;-74
2021/08/28 04:12:03;;;;;;;6.07;5.53;;;17.60;84.10;;;;;;5067031;28;20189;-75
2021/08/28 04:14:29;;;;;;;8.05;6.07;;;17.60;84.10;;;;;;5063487;28;20304;-75
2021/08/28 04:16:54;;;;;;;8.18;6.88;;;17.50;84.60;;;;;;5074277;28;20667;-75
2021/08/28 04:19:20;;;;;;;7.20;5.70;;;17.50;84.00;;;;;;5071847;28;20185;-75
2021/08/28 04:21:46;;;;;;;11.00;6.47;;;17.50;84.20;;;;;;5076000;28;20671;-75
2021/08/28 04:24:11;;;;;;;6.32;5.55;;;17.50;84.50;;;;;;5064349;28;20214;-75
2021/08/28 04:26:37;;;;;;;9.38;6.55;;;17.60;84.50;;;;;;5070755;28;20183;-75
2021/08/28 04:29:03;;;;;;;6.55;5.95;;;17.60;84.10;;;;;;5067562;28;20185;-75
2021/08/28 04:31:28;;;;;;;6.25;5.68;;;17.60;84.00;;;;;;5065733;28;20190;-75
2021/08/28 04:33:54;;;;;;;7.05;6.03;;;17.70;84.40;;;;;;5072628;28;20638;-75
2021/08/28 04:36:20;;;;;;;7.43;6.10;;;17.70;84.50;;;;;;5072013;28;20178;-75
2021/08/28 04:38:45;;;;;;;6.68;5.97;;;17.70;84.30;;;;;;5079165;28;20206;-75
2021/08/28 04:41:11;;;;;;;7.07;6.38;;;17.70;83.90;;;;;;5065391;28;20205;-75
2021/08/28 04:43:37;;;;;;;6.95;6.03;;;17.80;83.80;;;;;;5068395;28;20207;-75
2021/08/28 04:46:03;;;;;;;8.52;5.53;;;17.80;84.00;;;;;;5063668;28;20190;-75
2021/08/28 04:48:31;;;;;;;6.45;5.47;;;17.80;84.10;;;;;;5061359;28;20188;-73
2021/08/28 04:50:57;;;;;;;6.47;5.55;;;17.80;83.70;;;;;;5071329;28;20240;-74
2021/08/28 04:53:23;;;;;;;6.05;5.45;;;17.90;83.60;;;;;;5069044;28;20183;-74
2021/08/28 04:55:48;;;;;;;5.70;5.20;;;17.90;83.90;;;;;;5074168;28;20731;-74
2021/08/28 04:58:14;;;;;;;8.02;6.05;;;17.90;83.70;;;;;;5070665;28;20206;-74
2021/08/28 05:00:40;;;;;;;6.55;5.75;;;18.00;83.40;;;;;;5064900;28;20190;-74
2021/08/28 05:03:05;;;;;;;6.32;5.60;;;18.00;83.20;;;;;;5069963;28;20179;-74
2021/08/28 05:05:31;;;;;;;6.57;5.90;;;18.00;83.20;;;;;;5062995;28;20225;-74
2021/08/28 05:07:57;;;;;;;7.93;5.65;;;18.10;83.50;;;;;;5072014;28;20197;-74
2021/08/28 05:10:23;;;;;;;8.98;6.25;;;18.10;83.60;;;;;;5061399;28;20186;-74
2021/08/28 05:12:49;;;;;;;7.13;5.93;;;18.20;83.30;;;;;;5071122;28;20202;-74
2021/08/28 05:15:14;;;;;;;6.20;5.60;;;18.20;83.50;;;;;;5067854;28;20187;-74
2021/08/28 05:17:40;;;;;;;5.38;4.93;;;18.20;83.10;;;;;;5069106;28;20657;-74
2021/08/28 05:20:07;;;;;;;6.60;6.00;;;18.20;83.10;;;;;;5063766;28;20265;-74
2021/08/28 05:22:32;;;;;;;6.05;5.47;;;18.20;83.00;;;;;;5074448;28;20189;-73
2021/08/28 05:24:58;;;;;;;7.75;6.15;;;18.30;82.90;;;;;;5076228;28;20210;-73
2021/08/28 05:27:24;;;;;;;7.00;6.32;;;18.30;82.70;;;;;;5071185;28;20171;-73
2021/08/28 05:29:50;;;;;;;7.68;6.22;;;18.30;82.80;;;;;;5060781;28;20286;-73
2021/08/28 05:32:15;;;;;;;6.53;5.93;;;18.30;82.70;;;;;;5069995;28;20699;-73
2021/08/28 05:34:41;;;;;;;5.93;5.43;;;18.40;82.80;;;;;;5068137;28;20178;-72
2021/08/28 05:37:07;;;;;;;8.75;6.22;;;18.40;82.90;;;;;;5069252;28;20186;-72
2021/08/28 05:39:32;;;;;;;8.80;5.95;;;18.40;82.90;;;;;;5071415;28;20183;-71
2021/08/28 05:41:58;;;;;;;6.57;5.88;;;18.50;82.90;;;;;;5062817;28;20183;-72
2021/08/28 05:44:24;;;;;;;6.35;5.70;;;18.50;82.90;;;;;;5066356;28;21159;-77
2021/08/28 05:46:50;;;;;;;7.53;5.82;;;18.60;82.90;;;;;;5066773;28;20203;-73
2021/08/28 05:49:15;;;;;;;7.13;6.07;;;18.60;82.80;;;;;;5087599;28;20186;-72
2021/08/28 05:51:41;;;;;;;10.07;6.38;;;18.60;82.70;;;;;;5070548;28;20932;-71
2021/08/28 05:54:07;;;;;;;6.65;5.95;;;18.70;82.40;;;;;;5070420;28;20185;-71
2021/08/28 05:56:32;;;;;;;7.00;6.30;;;18.70;82.40;;;;;;5067083;28;20180;-71
2021/08/28 05:58:58;;;;;;;7.50;6.60;;;18.80;82.40;;;;;;5069872;28;20529;-71
2021/08/28 06:01:24;;;;;;;6.63;6.05;;;18.80;82.30;;;;;;5056104;28;20175;-71
2021/08/28 06:03:50;;;;;;;7.47;6.70;;;18.90;82.30;;;;;;5072377;28;20688;-72
2021/08/28 06:06:15;;;;;;;8.23;5.97;;;18.90;82.20;;;;;;5066298;28;20182;-73
2021/08/28 06:08:41;;;;;;;12.10;6.70;;;19.00;82.20;;;;;;5066288;28;20721;-74
2021/08/28 06:11:07;;;;;;;7.22;6.20;;;19.00;82.40;;;;;;5062687;28;20593;-75
2021/08/28 06:13:33;;;;;;;7.50;6.70;;;19.10;82.20;;;;;;5070969;28;20913;-74
2021/08/28 06:15:58;;;;;;;8.90;7.25;;;19.10;82.20;;;;;;5069558;28;20238;-75
2021/08/28 06:18:24;;;;;;;9.32;6.25;;;19.20;81.90;;;;;;5068762;28;20755;-75
2021/08/28 06:20:50;;;;;;;8.50;6.88;;;19.20;82.00;;;;;;5076054;28;20257;-75
2021/08/28 06:23:16;;;;;;;8.55;6.82;;;19.30;82.10;;;;;;5072905;28;20503;-74
2021/08/28 06:25:42;;;;;;;7.20;6.50;;;19.30;81.70;;;;;;5066966;28;20186;-75
2021/08/28 06:28:08;;;;;;;9.95;6.63;;;19.40;81.60;;;;;;5068976;28;20178;-75
2021/08/28 06:30:34;;;;;;;10.60;7.13;;;19.40;81.60;;;;;;5073261;28;20218;-74
2021/08/28 06:32:59;;;;;;;6.35;5.75;;;19.40;81.30;;;;;;5069460;28;20719;-74
2021/08/28 06:35:25;;;;;;;7.05;6.32;;;19.50;81.20;;;;;;5072226;28;20180;-74
2021/08/28 06:37:51;;;;;;;7.13;6.32;;;19.50;81.20;;;;;;5067608;28;20183;-75
2021/08/28 06:40:16;;;;;;;6.90;6.22;;;19.60;81.20;;;;;;5069051;28;20171;-75
2021/08/28 06:42:42;;;;;;;6.80;6.13;;;19.70;81.20;;;;;;5068096;28;20207;-72
2021/08/28 06:45:08;;;;;;;7.88;6.18;;;19.70;80.90;;;;;;5068354;28;20616;-75
2021/08/28 06:47:34;;;;;;;7.38;6.68;;;19.70;80.60;;;;;;5071753;28;20190;-74
2021/08/28 06:50:00;;;;;;;6.78;6.05;;;19.70;80.50;;;;;;5065682;28;20643;-75
2021/08/28 06:52:26;;;;;;;7.70;6.90;;;19.80;80.60;;;;;;5073722;28;20174;-75
2021/08/28 06:54:51;;;;;;;8.00;6.75;;;19.80;80.70;;;;;;5066972;28;20187;-75
2021/08/28 06:57:17;;;;;;;6.90;6.30;;;19.90;80.70;;;;;;5066548;28;20178;-75
2021/08/28 06:59:43;;;;;;;7.40;6.20;;;19.90;80.60;;;;;;5070540;28;20179;-74
2021/08/28 07:02:09;;;;;;;7.25;6.13;;;20.00;80.40;;;;;;5065016;28;20714;-74
2021/08/28 07:04:35;;;;;;;6.32;5.82;;;20.10;80.40;;;;;;5066948;28;20202;-76
2021/08/28 07:07:01;;;;;;;7.22;6.55;;;20.10;80.20;;;;;;5069958;28;20207;-75
2021/08/28 07:09:26;;;;;;;7.80;6.18;;;20.20;80.10;;;;;;5064777;28;20215;-76
2021/08/28 07:11:52;;;;;;;7.13;6.50;;;20.20;80.00;;;;;;5067827;28;20178;-74
2021/08/28 07:14:18;;;;;;;9.02;6.78;;;20.30;79.90;;;;;;5064393;28;20242;-75
2021/08/28 07:16:43;;;;;;;7.82;6.45;;;20.30;80.00;;;;;;5063163;28;20803;-74
2021/08/28 07:19:09;;;;;;;7.78;7.03;;;20.30;80.10;;;;;;5068219;28;20191;-74
2021/08/28 07:21:35;;;;;;;10.18;7.75;;;20.30;80.10;;;;;;5067071;28;20179;-74
2021/08/28 07:24:01;;;;;;;8.23;6.85;;;20.30;80.00;;;;;;5065124;28;20210;-72
2021/08/28 07:26:26;;;;;;;8.63;7.00;;;20.30;80.10;;;;;;5064747;28;20226;-74
2021/08/28 07:28:52;;;;;;;8.07;6.43;;;20.30;80.50;;;;;;5064568;28;20195;-72
2021/08/28 07:31:18;;;;;;;9.13;7.15;;;20.30;80.30;;;;;;5066523;28;20183;-74
2021/08/28 07:33:44;;;;;;;7.07;6.43;;;20.30;79.90;;;;;;5068401;28;20265;-73
2021/08/28 07:36:10;;;;;;;8.20;7.40;;;20.40;79.70;;;;;;5063876;28;20194;-73
2021/08/28 07:38:35;;;;;;;7.72;7.03;;;20.50;79.80;;;;;;5063257;28;20245;-73
2021/08/28 07:41:02;;;;;;;9.02;6.80;;;20.70;79.60;;;;;;5065731;28;20655;-73
2021/08/28 07:43:28;;;;;;;8.52;7.68;;;20.80;79.60;;;;;;5061123;28;20206;-73
2021/08/28 07:45:54;;;;;;;8.02;7.25;;;21.00;79.30;;;;;;5069714;28;20229;-73
2021/08/28 07:48:20;;;;;;;8.25;7.45;;;21.10;78.50;;;;;;5067792;28;20184;-73
2021/08/28 07:50:46;;;;;;;8.32;7.38;;;21.10;78.30;;;;;;5068925;28;20198;-73
2021/08/28 07:53:12;;;;;;;8.32;7.55;;;21.20;78.20;;;;;;5065679;28;20195;-73
2021/08/28 07:55:37;;;;;;;8.63;7.82;;;21.30;78.20;;;;;;5062684;28;20666;-72
2021/08/28 07:58:03;;;;;;;11.45;7.28;;;21.40;78.50;;;;;;5059884;28;20759;-73
2021/08/28 08:00:29;;;;;;;8.40;6.75;;;21.60;78.50;;;;;;5061740;28;20180;-77
2021/08/28 08:02:59;;;;;;;10.85;7.82;;;21.80;78.20;;;;;;5061724;28;20982;-77
2021/08/28 08:05:25;;;;;;;8.68;6.93;;;22.00;77.50;;;;;;5071292;28;20219;-78
2021/08/28 08:07:51;;;;;;;9.90;7.57;;;22.20;77.20;;;;;;5068446;28;20197;-76
2021/08/28 08:10:16;;;;;;;8.27;7.47;;;22.30;76.60;;;;;;5062018;28;20723;-75
2021/08/28 08:12:42;;;;;;;11.65;7.82;;;22.30;75.90;;;;;;5058450;28;20194;-74
2021/08/28 08:15:08;;;;;;;10.65;7.65;;;22.40;75.90;;;;;;5064679;28;20672;-72
2021/08/28 08:17:34;;;;;;;9.32;8.10;;;22.50;76.40;;;;;;5065549;28;20642;-74
2021/08/28 08:20:00;;;;;;;9.10;7.38;;;22.70;76.30;;;;;;5069433;28;20253;-73
2021/08/28 08:22:26;;;;;;;8.52;7.63;;;22.90;76.10;;;;;;5055838;28;20186;-72
2021/08/28 08:24:51;;;;;;;10.63;8.23;;;23.10;75.80;;;;;;5060345;28;20244;-75
2021/08/28 08:27:18;;;;;;;8.43;7.63;;;23.30;74.90;;;;;;5062299;28;20451;-75
2021/08/28 08:29:43;;;;;;;8.57;7.78;;;23.50;73.90;;;;;;5056680;28;20187;-74
2021/08/28 08:32:09;;;;;;;9.85;8.07;;;23.80;73.90;;;;;;5064572;28;20191;-75
2021/08/28 08:34:35;;;;;;;9.00;7.65;;;23.90;73.60;;;;;;5067956;28;20183;-75
2021/08/28 08:37:01;;;;;;;9.70;8.52;;;24.20;73.30;;;;;;5068957;28;20240;-74
2021/08/28 08:39:26;;;;;;;8.60;7.70;;;24.20;71.80;;;;;;5070591;28;20183;-73
2021/08/28 08:41:54;;;;;;;9.23;8.32;;;24.30;71.70;;;;;;5071230;28;20222;-74
2021/08/28 08:44:22;;;;;;;8.38;7.50;;;24.40;72.00;;;;;;5072089;28;20304;-73
2021/08/28 08:46:48;;;;;;;10.73;9.05;;;24.60;72.10;;;;;;5073558;28;20259;-74
2021/08/28 08:49:14;;;;;;;8.93;7.95;;;24.70;71.50;;;;;;5077448;28;20869;-74
2021/08/28 08:51:41;;;;;;;10.02;8.63;;;24.90;71.50;;;;;;5072939;28;20608;-75
2021/08/28 08:54:07;;;;;;;8.93;8.02;;;25.10;72.00;;;;;;5069878;28;20182;-75
2021/08/28 08:56:35;;;;;;;10.18;7.95;;;25.40;71.80;;;;;;5078223;28;20183;-75
2021/08/28 08:59:01;;;;;;;8.82;7.80;;;25.80;70.60;;;;;;5076133;28;20190;-75
2021/08/28 09:01:27;;;;;;;8.30;7.50;;;26.10;70.20;;;;;;5070535;28;20192;-75
2021/08/28 09:03:54;;;;;;;9.82;8.15;;;26.50;69.20;;;;;;5078064;28;20309;-75
2021/08/28 09:06:20;;;;;;;8.65;7.82;;;26.90;67.90;;;;;;5066335;28;20176;-74
2021/08/28 09:08:46;;;;;;;10.80;8.23;;;27.30;67.30;;;;;;5074350;28;20721;-74
2021/08/28 09:11:30;;;;;;;9.48;8.50;;;27.60;66.70;;;;;;5070666;28;20186;-74
2021/08/28 09:14:18;;;;;;;8.60;7.70;;;28.00;67.00;;;;;;5073304;28;20629;-74
2021/08/28 09:16:45;;;;;;;9.73;8.00;;;28.40;64.50;;;;;;5073719;28;20185;-74
2021/08/28 09:19:11;;;;;;;10.75;7.57;;;28.80;64.90;;;;;;5078328;28;20661;-74
2021/08/28 09:21:36;;;;;;;11.00;8.13;;;29.30;64.20;;;;;;5075207;28;20178;-74
2021/08/28 09:24:08;;;;;;;9.52;8.02;;;30.00;63.50;;;;;;5066499;28;20252;-74
2021/08/28 09:26:36;;;;;;;8.43;7.40;;;30.80;61.90;;;;;;5069949;28;20175;-75
2021/08/28 09:29:06;;;;;;;9.00;8.15;;;31.60;62.40;;;;;;5076872;28;20223;-73
2021/08/28 09:31:43;;;;;;;9.30;8.43;;;32.10;58.90;;;;;;5076236;28;20177;-74
2021/08/28 09:34:25;;;;;;;9.13;8.15;;;32.20;59.60;;;;;;5073673;28;20183;-74
2021/08/28 09:37:05;;;;;;;8.98;8.18;;;32.30;59.80;;;;;;5073177;28;20198;-75
2021/08/28 09:39:39;;;;;;;9.32;7.72;;;32.80;59.50;;;;;;5075775;28;20586;-75
2021/08/28 09:42:05;;;;;;;8.70;7.80;;;33.40;58.30;;;;;;5075528;28;20175;-73
2021/08/28 09:44:42;;;;;;;9.05;8.15;;;33.90;58.60;;;;;;5069946;28;20217;-73
2021/08/28 09:47:22;;;;;;;9.40;8.43;;;34.30;56.70;;;;;;5067923;28;20265;-73
2021/08/28 09:49:49;;;;;;;9.63;8.82;;;34.50;55.80;;;;;;5069935;28;20183;-73
2021/08/28 09:52:20;;;;;;;9.23;8.35;;;34.40;56.90;;;;;;5072008;28;20174;-73
2021/08/28 09:54:46;;;;;;;7.82;7.20;;;34.20;57.70;;;;;;5071805;28;20261;-73
2021/08/28 09:57:13;;;;;;;9.32;8.52;;;34.00;56.80;;;;;;5075609;28;20269;-74
2021/08/28 09:59:39;;;;;;;8.98;8.13;;;33.70;57.60;;;;;;5071695;28;20254;-75
2021/08/28 10:02:07;;;;;;;8.88;8.18;;;33.70;58.30;;;;;;5072923;28;20814;-74
2021/08/28 10:04:52;;;;;;;8.80;8.15;;;34.10;58.50;;;;;;5073856;28;20205;-75
2021/08/28 10:07:24;;;;;;;8.45;7.70;;;34.80;57.30;;;;;;5074099;28;20690;-74
2021/08/28 10:09:55;;;;;;;9.30;8.57;;;35.60;55.30;;;;;;5072493;28;20174;-74
2021/08/28 10:12:22;;;;;;;9.15;8.38;;;36.30;55.00;;;;;;5073399;28;20183;-74
2021/08/28 10:14:50;;;;;;;8.98;8.23;;;36.70;54.80;;;;;;5081583;28;20287;-74
2021/08/28 10:17:18;;;;;;;10.60;8.48;;;37.00;55.20;;;;;;5074107;28;20184;-74
2021/08/28 10:19:47;;;;;;;8.63;7.95;;;37.20;54.10;;;;;;5066429;28;20175;-74
2021/08/28 10:22:16;;;;;;;8.75;7.90;;;37.60;53.40;;;;;;5071756;28;20648;-74
2021/08/28 10:24:43;;;;;;;9.55;8.63;;;38.00;53.70;;;;;;5066779;28;20261;-74
2021/08/28 10:27:09;;;;;;;9.82;8.93;;;38.10;53.00;;;;;;5073283;28;20178;-74
2021/08/28 10:29:36;;;;;;;9.07;8.38;;;37.90;53.60;;;;;;5066965;28;20178;-74
2021/08/28 10:32:03;;;;;;;9.90;8.90;;;37.60;54.80;;;;;;5069336;28;20178;-74
2021/08/28 10:34:29;;;;;;;9.45;8.55;;;37.30;53.00;;;;;;5066554;28;20262;-75
2021/08/28 10:36:55;;;;;;;9.23;8.52;;;37.30;54.60;;;;;;5069383;28;20257;-75
2021/08/28 10:39:21;;;;;;;10.18;8.43;;;37.70;53.90;;;;;;5068606;28;20258;-74
2021/08/28 10:41:47;;;;;;;8.85;8.02;;;37.90;53.60;;;;;;5074095;28;20826;-74
2021/08/28 10:44:13;;;;;;;9.10;8.32;;;38.00;54.10;;;;;;5074518;28;20210;-75
2021/08/28 10:46:42;;;;;;;9.35;8.55;;;37.80;53.20;;;;;;5076902;28;20235;-74
2021/08/28 10:49:09;;;;;;;9.63;8.82;;;37.50;54.20;;;;;;5072442;28;20174;-75
2021/08/28 10:51:39;;;;;;;8.63;7.93;;;37.10;54.70;;;;;;5075757;28;20184;-74
2021/08/28 10:54:10;;;;;;;10.32;9.32;;;36.90;54.90;;;;;;5075801;28;20202;-75
2021/08/28 10:56:57;;;;;;;9.20;8.40;;;36.70;54.00;;;;;;5074384;28;20182;-75
2021/08/28 10:59:29;;;;;;;9.70;8.75;;;36.40;53.40;;;;;;5070214;28;20709;-75
2021/08/28 11:02:01;;;;;;;9.18;8.48;;;36.20;56.10;;;;;;5072707;28;20206;-74
2021/08/28 11:04:30;;;;;;;8.98;8.18;;;36.50;56.00;;;;;;5073141;28;20675;-74
2021/08/28 11:07:24;;;;;;;9.65;8.88;;;36.40;55.00;;;;;;5075282;28;20602;-74
2021/08/28 11:10:24;;;;;;;10.13;8.93;;;36.10;53.50;;;;;;5064651;28;20695;-75
2021/08/28 11:12:50;;;;;;;9.07;8.38;;;35.80;54.10;;;;;;5073843;28;20579;-74
2021/08/28 11:15:25;;;;;;;9.90;8.70;;;35.60;55.50;;;;;;5073589;28;20190;-74
2021/08/28 11:17:52;;;;;;;9.95;9.15;;;35.70;55.90;;;;;;5073870;28;20182;-75
2021/08/28 11:20:22;;;;;;;9.52;8.63;;;36.10;55.70;;;;;;5069269;28;20202;-74
2021/08/28 11:22:48;;;;;;;9.82;9.00;;;36.10;56.00;;;;;;5066813;28;20174;-74
2021/08/28 11:25:14;;;;;;;9.27;8.38;;;36.00;56.70;;;;;;5063577;28;20292;-75
2021/08/28 11:27:48;;;;;;;9.25;8.57;;;36.20;56.00;;;;;;5061380;28;20727;-74
2021/08/28 11:30:15;;;;;;;10.60;8.35;;;36.60;56.00;;;;;;5070111;28;20198;-74
2021/08/28 11:32:58;;;;;;;11.77;8.75;;;36.80;56.10;;;;;;5072137;28;20186;-74
2021/08/28 11:35:32;;;;;;;9.15;8.32;;;37.20;55.20;;;;;;5068091;28;20186;-74
2021/08/28 11:38:06;;;;;;;8.00;7.40;;;37.20;54.40;;;;;;5076313;28;20185;-73
2021/08/28 11:40:35;;;;;;;9.20;8.43;;;37.30;54.00;;;;;;5078561;28;20675;-73
2021/08/28 11:43:01;;;;;;;9.07;8.27;;;37.00;54.90;;;;;;5065192;28;20178;-73
2021/08/28 11:45:29;;;;;;;9.30;8.43;;;36.60;55.00;;;;;;5070730;28;20210;-73
2021/08/28 11:47:56;;;;;;;9.85;8.90;;;35.90;55.10;;;;;;5056912;28;20615;-74
2021/08/28 11:50:32;;;;;;;10.40;9.35;;;35.30;56.80;;;;;;5070400;28;20220;-76
2021/08/28 11:52:58;;;;;;;9.35;8.70;;;35.20;57.00;;;;;;5069073;28;20185;-72
2021/08/28 11:55:24;;;;;;;9.85;8.93;;;35.60;56.30;;;;;;5068111;28;20542;-74
2021/08/28 11:58:01;;;;;;;12.43;8.57;;;35.90;57.00;;;;;;5064960;28;20186;-73
2021/08/28 12:00:30;;;;;;;9.27;8.32;;;36.30;55.10;;;;;;5075629;28;20288;-72
2021/08/28 12:03:00;;;;;;;10.02;9.05;;;36.10;54.70;;;;;;5062933;28;20550;-74
2021/08/28 12:05:30;;;;;;;9.68;8.88;;;35.80;55.80;;;;;;5070393;28;21003;-74
2021/08/28 12:07:56;;;;;;;11.65;8.90;;;35.40;56.40;;;;;;5067645;28;20193;-71
2021/08/28 12:10:22;;;;;;;9.45;8.57;;;35.40;56.80;;;;;;5066257;28;20268;-72
2021/08/28 12:12:59;;;;;;;10.02;8.13;;;35.70;56.50;;;;;;5061595;28;20277;-72
2021/08/28 12:15:26;;;;;;;10.13;8.95;;;36.20;55.90;;;;;;5067634;28;20238;-72
2021/08/28 12:17:54;;;;;;;9.43;8.52;;;36.60;55.00;;;;;;5071207;28;20247;-73
2021/08/28 12:20:31;;;;;;;11.32;10.00;;;36.70;56.10;;;;;;5070550;28;20231;-72
2021/08/28 12:22:59;;;;;;;10.43;9.48;;;36.50;55.10;;;;;;5070516;28;20616;-72
2021/08/28 12:25:25;;;;;;;9.77;8.98;;;35.80;55.90;;;;;;5072949;28;20649;-72
2021/08/28 12:27:52;;;;;;;10.40;9.50;;;35.30;57.40;;;;;;5074434;28;20185;-71
2021/08/28 12:30:20;;;;;;;11.48;10.43;;;34.90;58.20;;;;;;5074626;28;20224;-72
2021/08/28 12:32:46;;;;;;;10.98;9.88;;;34.70;58.20;;;;;;5080064;28;20213;-72
2021/08/28 12:35:12;;;;;;;10.38;9.48;;;34.40;58.00;;;;;;5072567;28;20775;-72
2021/08/28 12:37:38;;;;;;;10.45;9.50;;;33.90;59.20;;;;;;5068843;28;20185;-71
2021/08/28 12:40:14;;;;;;;11.20;10.20;;;33.40;60.10;;;;;;5073663;28;20240;-71
2021/08/28 12:42:43;;;;;;;10.63;9.52;;;33.00;60.10;;;;;;5072211;28;20185;-75
2021/08/28 12:45:11;;;;;;;11.68;10.48;;;32.60;60.70;;;;;;5065572;28;20329;-72
2021/08/28 12:47:39;;;;;;;10.70;9.65;;;32.40;61.40;;;;;;5075556;28;20573;-72
2021/08/28 12:50:09;;;;;;;11.07;9.95;;;32.20;62.10;;;;;;5069550;28;20191;-72